チューク国際空港の過去48時間の天気

チューク国際空港 (Weno Island, Chuuk Int. Airp., Micronesia)

現在時刻: 9/23 07:22 +10 (9/22 21:22 UTC) 以下の時間は現地時間です。

過去48時間のMETAR気象情報
時間 風向 風速(m/s) 視程 気温(℃) 湿度(%) 気圧(hPa) 天気現象
23 06:51 不定 2 10km以上 28.4 85 1012.5
23 05:55 3 10km以上 27.9 90 1011.8
23 04:50 3 10km以上 27.4 92 1011.5
23 03:50 不定 2 10km以上 28 89 1011
23 02:50 静穏 0 10km以上 28.1 91 1010.8
23 01:50 不定 2 10km以上 28.4 89 1010.8
23 00:50 不定 2 10km以上 28.3 88 1011.5
22 23:50 不定 2 10km以上 28.6 87 1012.2
22 22:50 不定 2 10km以上 28.4 89 1012.5
22 21:50 3 10km以上 27.2 94 1012.8
22 20:51 3 10km以上 28.1 89 1012.5
22 19:50 静穏 0 10km以上 28.9 85 1012.3
22 18:53 静穏 0 10km以上 28.8 88 1012
22 17:52 静穏 0 10km以上 29.3 84 1011.5
22 16:51 不定 2 10km以上 30.3 81 1010.6
22 15:52 不定 2 10km以上 30.7 78 1010.1
22 14:52 不定 2 10km以上 31.1 78 1010.1
22 13:53 不定 2 10km以上 30.6 81 1010.3
22 12:51 不定 2 10km以上 30.7 80 1010.5
22 11:50 不定 2 10km以上 30.6 81 1011
22 10:50 不定 2 10km以上 30.3 82 1011.6
22 09:50 不定 2 10km以上 29 84 1012.3
22 08:52 不定 2 10km以上 28.5 86 1012.3
22 07:52 3 10km以上 28.1 89 1012.3
22 06:50 南西 3 10km以上 28.2 87 1012.2
22 05:50 南西 4 10km以上 28.2 88 1011.1
22 04:50 南南西 4 10km以上 28.5 87 1011
22 03:53 不定 2 10km以上 28.2 88 1010.5
22 02:54 静穏 0 10km以上 28.4 85 1010.5
22 01:51 不定 2 10km以上 28.5 85 1010.6
22 00:50 不定 2 10km以上 28.3 87 1011.3
21 23:54 不定 2 10km以上 28.3 87 1011.5
21 22:53 不定 2 10km以上 28.4 86 1012.2
21 21:50 不定 2 10km以上 28.5 84 1012.2
21 20:55 不定 2 10km以上 28.6 84 1012
21 19:52 不定 2 10km以上 28.7 84 1011.6
21 18:50 不定 2 10km以上 28.6 87 1010.6
21 17:50 3 10km以上 28.8 87 1009.6
21 16:50 不定 2 10km以上 30 83 1008.8
21 15:50 不定 2 10km以上 28.6 89 1008.8
21 13:50 不定 2 10km以上 31.7 80 1008.6
21 12:50 不定 2 10km以上 31.7 79 1008.9
21 11:51 不定 2 10km以上 31.6 79 1009.8
21 10:53 不定 2 10km以上 31 83 1010.3
21 09:50 不定 2 10km以上 31.1 80 1010.5
21 08:50 不定 2 10km以上 30.5 82 1010.3
21 07:50 不定 2 10km以上 30 84 1010.1
PTKK 222051Z VRB04KT 15SM FEW014 SCT120 BKN280 28/26 A2989 RMK SLP125 8/171 T02840257 52015
PTKK 221955Z VRB05KT 15SM FEW014 SCT120 BKN280 28/26 A2987 RMK SLP118 T02790261
PTKK 221850Z VRB05KT 15SM FEW014 SCT120 BKN280 27/26 A2986 RMK SLP115 T02740260
PTKK 221750Z VRB03KT 15SM FEW014 SCT120 BKN280 28/26 A2985 RMK SLP110 8/171 T02800261 10290 20270 57005
PTKK 221650Z 00000KT 15SM FEW014 SCT120 BKN280 28/26 A2984 RMK SLP108 T02810264
PTKK 221550Z VRB04KT 15SM FEW014 SCT120 BKN280 28/26 A2984 RMK SLP108 T02840264
PTKK 221450Z VRB04KT 15SM FEW014 SCT120 BKN280 28/26 A2986 RMK SLP115 8/171 T02830261 57014
PTKK 221350Z VRB04KT 15SM FEW014 SCT120 BKN280 29/26 A2988 RMK SLP122 T02860263
PTKK 221250Z VRB04KT 15SM FEW014 SCT120 BKN280 28/26 A2989 RMK SLP125 T02840264
PTKK 221150Z VRB05KT 15SM FEW014 SCT120 BKN280 27/26 A2991 RMK SLP128 8/171 T02720261 10307 20272 52008
PTKK 221051Z VRB05KT 15SM FEW014 SCT120 BKN280 28/26 A2989 RMK SLP125 T02810262
PTKK 220950Z 00000KT 15SM FEW014 SCT120 BKN280 29/26 A2989 RMK SLP123 T02890262
PTKK 220853Z 00000KT 15SM FEW014 SCT120 BKN280 29/27 A2988 RMK SLP120 8/171 T02880266 52019
PTKK 220752Z 00000KT 15SM FEW014 SCT120 BKN280 29/26 A2986 RMK SLP115 T02930264
PTKK 220651Z VRB03KT 15SM FEW014 SCT120 OVC280 30/27 A2984 RMK SLP106 T03030266
PTKK 220552Z VRB03KT 15SM FEW014 SCT120 BKN280 31/27 A2983 RMK SLP101 8/171 T03070265 10311 20290 55003
PTKK 220452Z VRB03KT 15SM FEW014 SCT120 OVC280 31/27 A2982 RMK SLP101 T03110269
PTKK 220353Z VRB04KT 15SM FEW014 SCT120 OVC280 31/27 A2983 RMK SLP103 T03060270
PTKK 220251Z VRB04KT 15SM FEW014 SCT120 OVC280 31/27 A2983 RMK SLP105 8/171 T03070269 57019
PTKK 220150Z VRB04KT 15SM FEW014 SCT120 OVC280 31/27 A2985 RMK SLP110 T03060270
PTKK 220050Z VRB03KT 15SM FEW014 SCT120 OVC280 30/27 A2987 RMK SLP116 T03030269
PTKK 212350Z VRB04KT 15SM FEW014 BKN120 OVC280 29/26 A2989 RMK SLP123 8/171 T02900261 10290 20281 51002
PTKK 212252Z VRB04KT 15SM FEW014 BKN120 OVC280 29/26 A2989 RMK SLP123 T02850260
PTKK 212152Z 17006KT 15SM FEW014TCU BKN120 OVC280 28/26 A2989 RMK TCU NE S SLP123 T02810261
PTKK 212050Z 23006KT 15SM FEW014 BKN120 OVC280 28/26 A2988 RMK SLP122 8/171 T02820258 52017
PTKK 211950Z 23007KT 15SM FEW014TCU BKN120 OVC280 28/26 A2985 RMK TCU N-NE S SLP111 T02820261
PTKK 211850Z 20007KT 15SM FEW014TCU BKN120 OVC280 29/26 A2985 RMK TCU SW-W NE-E SLP110 T02850261
PTKK 211753Z VRB04KT 15SM FEW014 BKN120 OVC280 28/26 A2983 RMK SLP105 8/178 T02820260 10285 20282 56008
PTKK 211654Z 00000KT 15SM FEW014 SCT120 OVC280 28/26 A2983 RMK SLP105 T02840257
PTKK 211551Z VRB03KT 15SM FEW014 BKN120 OVC280 29/26 A2984 RMK SLP106 T02850257
PTKK 211450Z VRB03KT 15SM FEW014 BKN120 OVC280 28/26 A2986 RMK SLP113 8/178 T02830260 57008
PTKK 211354Z VRB03KT 15SM FEW014 BKN120 OVC280 28/26 A2986 RMK SLP115 T02830260
PTKK 211253Z VRB03KT 15SM FEW014 BKN280 28/26 A2988 RMK SLP122 T02840258
PTKK 211150Z VRB04KT 15SM FEW014 BKN290 29/26 A2988 RMK SLP122 8/101 T02850255 10300 20285 52015
PTKK 211055Z VRB03KT 15SM FEW014 SCT290 29/26 A2988 RMK SLP120 T02860257
PTKK 210952Z VRB03KT 15SM FEW014 BKN290 29/26 A2987 RMK SLP116 T02870257
PTKK 210850Z VRB03KT 15SM FEW014 BKN290 29/26 A2984 RMK SLP106 8/101 T02860263 52019
PTKK 210750Z VRB05KT 15SM FEW014 BKN290 29/27 A2981 RMK SLP096 T02880265
PTKK 210650Z VRB04KT 15SM FEW014 BKN290 30/27 A2978 RMK SLP088 T03000267
PTKK 210550Z VRB03KT 15SM FEW014 BKN290 29/27 A2978 RMK SLP088 8/101 T02860266 10317 20286 55002
PTKK 210350Z VRB04KT 15SM FEW014 BKN290 32/28 A2978 RMK SLP086 T03170278
PTKK 210250Z VRB04KT 15SM FEW014 FEW290 32/28 A2979 RMK SLP089 8/101 T03170277 57015
PTKK 210151Z VRB04KT 15SM FEW014TCU FEW290 32/28 A2981 RMK SLP098 T03160275
PTKK 210053Z VRB04KT 15SM FEW014 SCT290 31/28 A2983 RMK SLP103 T03100277
PTKK 202350Z VRB03KT 15SM FEW014 SCT290 31/27 A2983 RMK SLP105 8/101 T03110273 10311 20279 52003
PTKK 202250Z VRB04KT 15SM FEW014 FEW290 31/27 A2983 RMK SLP103 T03050270
PTKK 202150Z VRB04KT 15SM FEW014 FEW290 30/27 A2983 RMK SLP101 T03000269